Search for airport 
image banner adimage banner adimage banner ad
image banner ad

77CA - Daulton

Located in Madera, United States

ICAO - 77CA, IATA -

Data provided by Airmate  

General information

Coordinates: N37°7'15" W119°59'17"
Elevation is 425 feet MSL.
Magnetic variation is 16° East
View others Airports in California

Operational data

Special qualification required
Current time UTC:
Current local time:
Weather at : KMAE - Madera Muni ( 18 km )
METAR: KMAE 141053Z AUTO 31010KT 10SM CLR 18/14 A2996 RMK AO2 SLP142 T01830144
View NOTAMs / SUP AIP / TFR affecting this airport [VIEW]
Communications frequencies: [VIEW]

Runways:

RWY identifierQFULength (ft)Width (ft)SurfaceLDA (ft)
09170095EARTH
27170095EARTH

Airport contact information

Address: Madera United States

Satellite view of 77CA